createdAt,value
2018-05-01T00:00:15.437Z,21.27
2018-05-01T00:02:49.622Z,24.27
2018-05-01T00:05:22.137Z,21.17
2018-05-01T00:07:56.472Z,22.03
2018-05-01T00:10:28.493Z,26.63
2018-05-01T00:13:01.490Z,21.50
2018-05-01T00:15:33.413Z,23.17
2018-05-01T00:18:06.419Z,20.93
2018-05-01T00:20:38.393Z,23.20
2018-05-01T00:23:10.450Z,23.53
2018-05-01T00:25:43.653Z,23.30
2018-05-01T00:28:16.735Z,22.33
2018-05-01T00:30:49.411Z,22.03
2018-05-01T00:33:23.099Z,26.17
2018-05-01T00:35:54.932Z,22.13
2018-05-01T00:38:27.696Z,20.47
2018-05-01T00:41:00.712Z,22.00
2018-05-01T00:43:33.730Z,25.37
2018-05-01T00:46:06.522Z,25.03
2018-05-01T00:48:38.894Z,23.23
2018-05-01T00:51:13.056Z,22.80
2018-05-01T00:53:46.178Z,25.80
2018-05-01T00:56:19.174Z,24.17
2018-05-01T00:58:51.314Z,23.67
2018-05-01T01:01:25.155Z,22.83
2018-05-01T01:03:57.853Z,23.83
2018-05-01T01:06:30.774Z,24.97
2018-05-01T01:09:04.215Z,23.63
2018-05-01T01:11:36.939Z,24.97
2018-05-01T01:14:09.287Z,24.87
2018-05-01T01:16:41.215Z,25.10
2018-05-01T01:19:13.793Z,26.77
2018-05-01T01:21:46.613Z,25.80
2018-05-01T01:24:18.475Z,26.23
2018-05-01T01:26:50.455Z,27.07
2018-05-01T01:29:22.937Z,25.83
2018-05-01T01:31:56.259Z,25.00
2018-05-01T01:34:29.534Z,27.27
2018-05-01T01:37:00.578Z,27.83
2018-05-01T01:39:31.278Z,27.57
2018-05-01T01:42:02.893Z,28.07
2018-05-01T01:44:33.336Z,29.30
2018-05-01T01:47:03.794Z,27.67
2018-05-01T01:49:35.832Z,32.37
2018-05-01T01:52:07.433Z,31.00
2018-05-01T01:54:37.856Z,32.37
2018-05-01T01:57:09.074Z,32.93
2018-05-01T01:59:40.015Z,35.63
2018-05-01T02:02:11.393Z,33.73
2018-05-01T02:04:41.936Z,34.63
2018-05-01T02:07:12.237Z,36.40
2018-05-01T02:09:42.156Z,35.77
2018-05-01T02:12:13.030Z,38.20
2018-05-01T02:14:43.834Z,38.13
2018-05-01T02:17:15.852Z,39.30
2018-05-01T02:19:47.116Z,40.13
2018-05-01T02:22:17.295Z,41.07
2018-05-01T02:24:48.074Z,42.23
2018-05-01T02:27:18.721Z,44.60
2018-05-01T02:29:49.239Z,43.73
2018-05-01T02:32:21.077Z,44.27
2018-05-01T02:34:52.179Z,43.70
2018-05-01T02:37:24.533Z,46.23
2018-05-01T02:39:55.022Z,45.57
2018-05-01T02:42:26.296Z,45.07
2018-05-01T02:44:56.855Z,43.17
2018-05-01T02:47:27.374Z,43.43
2018-05-01T02:49:58.656Z,43.07
2018-05-01T02:52:29.792Z,43.87
2018-05-01T02:55:02.574Z,44.33
2018-05-01T02:57:33.052Z,46.07
2018-05-01T03:00:04.680Z,43.70
2018-05-01T03:02:35.651Z,42.87
2018-05-01T03:05:06.191Z,42.70
2018-05-01T03:07:36.535Z,43.67
2018-05-01T03:10:08.410Z,40.30
2018-05-01T03:12:38.954Z,37.87
2018-05-01T03:15:09.459Z,38.70
2018-05-01T03:17:39.576Z,37.60
2018-05-01T03:20:10.440Z,39.07
2018-05-01T03:22:40.482Z,37.97
2018-05-01T03:25:10.893Z,37.17
2018-05-01T03:27:41.156Z,36.10
2018-05-01T03:30:11.761Z,34.47
2018-05-01T03:32:42.513Z,38.40
2018-05-01T03:35:13.413Z,39.10
2018-05-01T03:37:44.759Z,37.87
2018-05-01T03:40:15.611Z,37.33
2018-05-01T03:42:45.958Z,36.40
2018-05-01T03:45:16.971Z,35.50
2018-05-01T03:47:48.416Z,37.47
2018-05-01T03:50:18.999Z,37.83
2018-05-01T03:52:49.337Z,36.50
2018-05-01T03:55:20.535Z,36.20
2018-05-01T03:57:51.134Z,39.00
2018-05-01T04:00:22.012Z,37.80
2018-05-01T04:02:52.898Z,44.97
2018-05-01T04:05:23.919Z,39.37
2018-05-01T04:07:54.696Z,39.03
2018-05-01T04:10:27.035Z,37.17
2018-05-01T04:12:57.974Z,41.33
2018-05-01T04:15:28.894Z,41.73
2018-05-01T04:17:59.433Z,47.23
2018-05-01T04:20:30.352Z,42.97
2018-05-01T04:23:01.233Z,47.77
2018-05-01T04:25:31.939Z,42.70
2018-05-01T04:28:03.454Z,41.40
2018-05-01T04:30:33.778Z,45.17
2018-05-01T04:33:04.661Z,44.83
2018-05-01T04:35:37.237Z,44.10
2018-05-01T04:38:09.456Z,43.73
2018-05-01T04:40:40.503Z,46.37
2018-05-01T04:43:11.111Z,48.90
2018-05-01T04:45:42.661Z,46.53
2018-05-01T04:48:13.195Z,47.77
2018-05-01T04:50:43.553Z,49.17
2018-05-01T04:53:13.850Z,50.50
2018-05-01T04:55:44.677Z,52.97
2018-05-01T04:58:15.174Z,59.60
2018-05-01T05:00:45.659Z,61.63
2018-05-01T05:03:16.133Z,65.33
2018-05-01T05:05:46.394Z,63.67
2018-05-01T05:08:16.811Z,69.57
2018-05-01T05:10:47.036Z,66.23
2018-05-01T05:13:17.707Z,70.77
2018-05-01T05:15:48.396Z,71.33
2018-05-01T05:18:19.482Z,71.13
2018-05-01T05:20:49.919Z,71.07
2018-05-01T05:23:20.033Z,72.87
2018-05-01T05:25:50.532Z,69.13
2018-05-01T05:28:21.219Z,74.23
2018-05-01T05:30:51.661Z,72.23
2018-05-01T05:33:23.959Z,68.37
2018-05-01T05:35:55.413Z,68.67
2018-05-01T05:38:26.991Z,69.80
2018-05-01T05:40:58.311Z,71.87
2018-05-01T05:43:30.494Z,64.80
2018-05-01T05:46:01.268Z,66.03
2018-05-01T05:48:32.453Z,75.73
2018-05-01T05:51:04.161Z,68.10
2018-05-01T05:53:35.514Z,65.57
2018-05-01T05:56:06.477Z,68.30
2018-05-01T05:58:37.480Z,69.27
2018-05-01T06:01:09.360Z,72.20
2018-05-01T06:03:39.735Z,63.70
2018-05-01T06:06:10.959Z,70.13
2018-05-01T06:08:42.572Z,68.03
2018-05-01T06:11:13.338Z,62.13
2018-05-01T06:13:44.396Z,60.10
2018-05-01T06:16:15.971Z,63.80
2018-05-01T06:18:48.298Z,71.17
2018-05-01T06:21:18.814Z,70.03
2018-05-01T06:23:50.853Z,68.43
2018-05-01T06:26:21.915Z,72.27
2018-05-01T06:28:52.799Z,72.60
2018-05-01T06:31:24.189Z,71.17
2018-05-01T06:33:55.393Z,58.77
2018-05-01T06:36:26.514Z,66.50
2018-05-01T06:38:57.669Z,72.27
2018-05-01T06:41:29.015Z,73.37
2018-05-01T06:44:00.516Z,72.33
2018-05-01T06:46:31.153Z,70.30
2018-05-01T06:49:03.159Z,66.73
2018-05-01T06:51:33.369Z,59.83
2018-05-01T06:54:04.871Z,62.83
2018-05-01T06:56:35.337Z,58.50
2018-05-01T06:59:06.849Z,56.40
2018-05-01T07:01:40.491Z,60.30
2018-05-01T07:04:12.017Z,57.57
2018-05-01T07:06:42.729Z,62.73
2018-05-01T07:09:14.498Z,63.40
2018-05-01T07:11:45.255Z,63.83
2018-05-01T07:14:16.074Z,59.77
2018-05-01T07:16:47.892Z,65.83
2018-05-01T07:19:18.764Z,62.30
2018-05-01T07:21:50.176Z,61.23
2018-05-01T07:24:21.336Z,60.43
2018-05-01T07:26:53.629Z,59.70
2018-05-01T07:29:24.249Z,59.17
2018-05-01T07:31:55.572Z,58.13
2018-05-01T07:34:30.815Z,59.57
2018-05-01T07:37:02.858Z,53.10
2018-05-01T07:39:35.911Z,54.23
2018-05-01T07:42:06.180Z,53.37
2018-05-01T07:44:36.836Z,56.17
2018-05-01T07:47:07.693Z,54.50
2018-05-01T07:49:38.556Z,57.33
2018-05-01T07:52:12.072Z,55.17
2018-05-01T07:54:43.692Z,53.77
2018-05-01T07:57:14.532Z,54.23
2018-05-01T07:59:45.220Z,54.47
2018-05-01T08:02:17.315Z,52.20
2018-05-01T08:04:48.772Z,49.93
2018-05-01T08:07:20.574Z,47.47
2018-05-01T08:09:51.556Z,48.70
2018-05-01T08:12:23.457Z,47.47
2018-05-01T08:14:53.559Z,42.30
2018-05-01T08:17:24.990Z,40.10
2018-05-01T08:19:55.492Z,36.90
2018-05-01T08:22:26.026Z,35.83
2018-05-01T08:24:56.816Z,39.27
2018-05-01T08:27:28.001Z,39.00
2018-05-01T08:30:04.652Z,42.97
2018-05-01T08:32:38.749Z,50.10
2018-05-01T08:35:10.480Z,49.30
2018-05-01T08:37:42.103Z,55.13
2018-05-01T08:40:12.579Z,51.33
2018-05-01T08:42:44.353Z,54.97
2018-05-01T08:45:16.153Z,51.10
2018-05-01T08:47:47.857Z,49.40
2018-05-01T08:50:18.135Z,46.07
2018-05-01T08:52:48.775Z,36.17
2018-05-01T08:55:19.692Z,30.67
2018-05-01T08:57:52.253Z,24.93
2018-05-01T09:00:24.332Z,25.97
2018-05-01T09:02:55.981Z,25.33
2018-05-01T09:05:26.317Z,43.80
2018-05-01T09:07:57.114Z,26.77
2018-05-01T09:10:28.509Z,23.53
2018-05-01T09:13:00.913Z,23.53
2018-05-01T09:15:31.395Z,19.67
2018-05-01T09:18:02.660Z,18.97
2018-05-01T09:20:33.472Z,22.13
2018-05-01T09:23:06.549Z,24.10
2018-05-01T09:25:37.663Z,21.60
2018-05-01T09:28:10.017Z,23.90
2018-05-01T09:30:41.154Z,21.97
2018-05-01T09:33:13.911Z,21.57
2018-05-01T09:35:46.015Z,19.07
2018-05-01T09:38:18.873Z,23.33
2018-05-01T09:40:49.474Z,20.27
2018-05-01T09:43:21.352Z,23.77
2018-05-01T09:45:52.455Z,21.47
2018-05-01T09:48:23.573Z,22.63
2018-05-01T09:50:54.434Z,22.27
2018-05-01T09:53:28.736Z,19.73
2018-05-01T09:56:02.930Z,19.57
2018-05-01T09:58:36.092Z,22.37
2018-05-01T10:01:09.613Z,19.90
2018-05-01T10:03:43.717Z,22.57
2018-05-01T10:06:16.270Z,22.07
2018-05-01T10:08:49.940Z,19.27
2018-05-01T10:11:23.033Z,20.30
2018-05-01T10:13:56.650Z,21.30
2018-05-01T10:16:31.477Z,29.90
2018-05-01T10:19:04.199Z,22.60
2018-05-01T10:21:38.412Z,21.73
2018-05-01T10:24:11.940Z,21.57
2018-05-01T10:26:44.919Z,19.47
2018-05-01T10:29:18.818Z,23.23
2018-05-01T10:31:51.636Z,22.13
2018-05-01T10:34:24.834Z,19.63
2018-05-01T10:36:57.473Z,20.23
2018-05-01T10:39:29.971Z,23.13
2018-05-01T10:42:03.876Z,24.10
2018-05-01T10:44:37.394Z,24.43
2018-05-01T10:47:09.332Z,27.87
2018-05-01T10:49:49.418Z,32.07
2018-05-01T10:52:25.412Z,38.60
2018-05-01T10:54:59.753Z,39.10
2018-05-01T10:57:34.596Z,42.30
2018-05-01T11:00:07.629Z,48.97
2018-05-01T11:02:40.070Z,42.33
2018-05-01T11:05:12.970Z,39.83
2018-05-01T11:07:45.273Z,37.27
2018-05-01T11:10:20.817Z,35.30
2018-05-01T11:12:56.214Z,29.83
2018-05-01T11:15:30.514Z,35.10
2018-05-01T11:18:05.052Z,34.67
2018-05-01T11:20:38.173Z,34.77
2018-05-01T11:23:12.174Z,25.30
2018-05-01T11:25:48.072Z,38.83
2018-05-01T11:28:23.113Z,38.23
2018-05-01T11:30:57.480Z,39.40
2018-05-01T11:33:29.170Z,33.60
2018-05-01T11:36:03.817Z,34.20
2018-05-01T11:38:38.350Z,39.03
2018-05-01T11:41:11.855Z,37.17
2018-05-01T11:43:44.917Z,37.83
2018-05-01T11:46:20.281Z,48.70
2018-05-01T11:48:56.395Z,47.40
2018-05-01T11:51:30.097Z,43.93
2018-05-01T11:54:04.233Z,43.60
2018-05-01T11:56:35.887Z,45.60
2018-05-01T11:59:09.514Z,40.63
2018-05-01T12:01:44.933Z,43.03
2018-05-01T12:04:19.132Z,47.20
2018-05-01T12:06:51.134Z,48.13
2018-05-01T12:09:24.954Z,45.07
2018-05-01T12:11:56.981Z,38.13
2018-05-01T12:14:29.501Z,42.07
2018-05-01T12:17:03.697Z,34.60
2018-05-01T12:19:38.709Z,37.00
2018-05-01T12:22:12.603Z,29.37
2018-05-01T12:24:46.177Z,36.20
2018-05-01T12:27:18.494Z,30.53
2018-05-01T12:29:52.135Z,43.00
2018-05-01T12:32:25.199Z,35.33
2018-05-01T12:34:58.380Z,38.07
2018-05-01T12:37:31.232Z,39.20
2018-05-01T12:40:03.937Z,35.17
2018-05-01T12:42:36.788Z,37.87
2018-05-01T12:45:12.612Z,40.07
2018-05-01T12:47:47.530Z,39.50
2018-05-01T12:50:20.150Z,34.00
2018-05-01T12:52:57.492Z,34.13
2018-05-01T12:55:31.632Z,40.07
2018-05-01T12:58:06.787Z,33.83
2018-05-01T13:00:42.429Z,31.17
2018-05-01T13:03:16.351Z,25.50
2018-05-01T13:05:49.416Z,31.60
2018-05-01T13:08:25.655Z,49.43
2018-05-01T13:11:00.714Z,46.30
2018-05-01T13:13:33.101Z,38.37
2018-05-01T13:16:07.894Z,44.53
2018-05-01T13:18:41.474Z,47.70
2018-05-01T13:21:16.454Z,38.97
2018-05-01T13:23:49.676Z,30.63
2018-05-01T13:26:22.790Z,45.97
2018-05-01T13:28:55.033Z,23.30
2018-05-01T13:31:27.790Z,49.47
2018-05-01T13:34:00.791Z,37.47
2018-05-01T13:36:35.710Z,46.93
2018-05-01T13:39:09.370Z,99.87
2018-05-01T13:41:47.654Z,49.73
2018-05-01T13:44:22.178Z,35.17
2018-05-01T13:46:57.052Z,38.03
2018-05-01T13:49:31.257Z,44.90
2018-05-01T13:52:04.435Z,38.63
2018-05-01T13:54:37.003Z,39.60
2018-05-01T13:57:10.857Z,46.47
2018-05-01T13:59:43.774Z,30.83
2018-05-01T14:02:17.253Z,38.40
2018-05-01T14:04:54.652Z,37.03
2018-05-01T14:07:28.412Z,33.07
2018-05-01T14:10:01.178Z,31.70
2018-05-01T14:12:36.691Z,35.17
2018-05-01T14:15:10.398Z,36.00
2018-05-01T14:17:43.015Z,34.37
2018-05-01T14:20:15.275Z,33.67
2018-05-01T14:22:47.413Z,37.20
2018-05-01T14:25:20.443Z,42.63
2018-05-01T14:27:52.595Z,37.37
2018-05-01T14:30:24.852Z,34.87
2018-05-01T14:33:00.034Z,33.90
2018-05-01T14:35:32.235Z,31.70
2018-05-01T14:38:06.216Z,31.17
2018-05-01T14:40:40.491Z,33.47
2018-05-01T14:43:12.958Z,35.03
2018-05-01T14:45:47.376Z,34.00
2018-05-01T14:48:20.516Z,32.77
2018-05-01T14:50:52.473Z,36.53
2018-05-01T14:53:26.450Z,35.40
2018-05-01T14:55:59.832Z,33.93
2018-05-01T14:58:34.996Z,33.70
2018-05-01T15:01:09.465Z,39.70
2018-05-01T15:03:45.737Z,40.23
2018-05-01T15:06:19.318Z,38.23
2018-05-01T15:08:52.742Z,39.53
2018-05-01T15:11:26.753Z,44.17
2018-05-01T15:13:59.233Z,43.90
2018-05-01T15:16:32.513Z,43.63
2018-05-01T15:19:04.573Z,43.70
2018-05-01T15:21:37.478Z,38.97
2018-05-01T15:24:13.211Z,40.93
2018-05-01T15:26:50.300Z,40.67
2018-05-01T15:29:25.750Z,38.50
2018-05-01T15:32:00.199Z,35.30
2018-05-01T15:34:34.660Z,51.27
2018-05-01T15:37:07.453Z,35.37
2018-05-01T15:39:42.491Z,27.50
2018-05-01T15:42:15.933Z,29.10
2018-05-01T15:44:51.770Z,32.33
2018-05-01T15:47:23.576Z,36.57
2018-05-01T15:50:03.652Z,36.27
2018-05-01T15:52:36.954Z,36.10
2018-05-01T15:55:08.455Z,35.70
2018-05-01T15:57:42.651Z,38.17
2018-05-01T16:00:15.496Z,33.03
2018-05-01T16:02:47.776Z,32.07
2018-05-01T16:05:24.957Z,34.27
2018-05-01T16:07:58.784Z,34.13
2018-05-01T16:10:32.877Z,37.97
2018-05-01T16:13:08.176Z,36.73
2018-05-01T16:15:41.870Z,34.03
2018-05-01T16:18:13.739Z,35.50
2018-05-01T16:20:48.250Z,36.70
2018-05-01T16:23:21.094Z,33.77
2018-05-01T16:25:56.357Z,40.90
2018-05-01T16:28:30.494Z,40.80
2018-05-01T16:31:06.260Z,30.87
2018-05-01T16:33:44.623Z,34.33
2018-05-01T16:36:18.792Z,33.57
2018-05-01T16:38:59.652Z,35.60
2018-05-01T16:41:35.559Z,30.47
2018-05-01T16:44:14.700Z,35.23
2018-05-01T16:46:50.573Z,34.73
2018-05-01T16:49:23.337Z,36.40
2018-05-01T16:51:56.916Z,42.83
2018-05-01T16:54:31.137Z,34.53
2018-05-01T16:57:04.113Z,33.07
2018-05-01T16:59:38.275Z,32.30
2018-05-01T17:02:11.236Z,34.17
2018-05-01T17:04:44.416Z,35.73
2018-05-01T17:07:18.399Z,34.57
2018-05-01T17:09:51.178Z,38.93
2018-05-01T17:12:25.958Z,37.27
2018-05-01T17:14:58.657Z,35.87
2018-05-01T17:17:31.637Z,38.70
2018-05-01T17:20:04.974Z,45.87
2018-05-01T17:22:37.895Z,39.53
2018-05-01T17:25:10.747Z,37.80
2018-05-01T17:27:43.929Z,33.63
2018-05-01T17:30:17.355Z,30.20
2018-05-01T17:32:51.010Z,33.70
2018-05-01T17:35:29.196Z,31.93
2018-05-01T17:38:04.842Z,31.67
2018-05-01T17:40:39.116Z,28.83
2018-05-01T17:43:14.214Z,25.67
2018-05-01T17:45:46.781Z,28.83
2018-05-01T17:48:20.793Z,27.87
2018-05-01T17:50:54.136Z,28.33
2018-05-01T17:53:27.054Z,25.27
2018-05-01T17:55:59.361Z,29.53
2018-05-01T17:58:31.294Z,24.37
2018-05-01T18:01:03.765Z,24.43
2018-05-01T18:03:36.192Z,24.23
2018-05-01T18:06:09.492Z,27.23
2018-05-01T18:08:41.937Z,28.57
2018-05-01T18:11:16.477Z,23.53
2018-05-01T18:13:53.274Z,22.50
2018-05-01T18:16:29.333Z,21.50
2018-05-01T18:19:03.773Z,23.33
2018-05-01T18:21:35.678Z,23.10
2018-05-01T18:24:11.398Z,23.70
2018-05-01T18:26:43.898Z,22.97
2018-05-01T18:29:16.855Z,23.73
2018-05-01T18:31:50.650Z,22.20
2018-05-01T18:34:23.773Z,22.97
2018-05-01T18:36:57.535Z,23.03
2018-05-01T18:39:31.194Z,23.37
2018-05-01T18:42:05.519Z,24.43
2018-05-01T18:44:38.195Z,23.30
2018-05-01T18:47:10.661Z,24.80
2018-05-01T18:49:43.859Z,25.83
2018-05-01T18:52:17.537Z,27.50
2018-05-01T18:54:51.132Z,29.20
2018-05-01T18:57:24.637Z,30.07
2018-05-01T18:59:57.759Z,31.57
2018-05-01T19:02:31.754Z,30.77
2018-05-01T19:05:04.954Z,35.60
2018-05-01T19:07:38.512Z,32.03
2018-05-01T19:10:14.233Z,33.87
2018-05-01T19:12:51.535Z,34.93
2018-05-01T19:15:24.713Z,34.07
2018-05-01T19:17:58.272Z,33.20
2018-05-01T19:20:31.256Z,31.80
2018-05-01T19:23:04.131Z,31.23
2018-05-01T19:25:37.240Z,33.57
2018-05-01T19:28:09.373Z,35.23
2018-05-01T19:30:42.113Z,35.07
2018-05-01T19:33:14.769Z,35.10
2018-05-01T19:35:47.617Z,34.23
2018-05-01T19:38:19.295Z,35.63
2018-05-01T19:40:51.069Z,35.47
2018-05-01T19:43:22.783Z,37.70
2018-05-01T19:45:55.595Z,36.60
2018-05-01T19:48:29.870Z,38.20
2018-05-01T19:51:04.539Z,37.27
2018-05-01T19:53:37.843Z,36.93
2018-05-01T19:56:11.912Z,34.63
2018-05-01T19:58:43.914Z,33.83
2018-05-01T20:01:18.993Z,36.27
2018-05-01T20:03:52.378Z,36.27
2018-05-01T20:06:26.472Z,39.47
2018-05-01T20:08:59.132Z,35.97
2018-05-01T20:11:32.391Z,41.43
2018-05-01T20:14:07.754Z,44.70
2018-05-01T20:16:41.557Z,51.40
2018-05-01T20:19:15.394Z,56.47
2018-05-01T20:21:48.915Z,60.67
2018-05-01T20:24:21.239Z,71.37
2018-05-01T20:26:54.613Z,70.53
2018-05-01T20:29:27.277Z,83.67
2018-05-01T20:32:00.793Z,85.00
2018-05-01T20:34:33.899Z,84.53
2018-05-01T20:37:07.634Z,93.67
2018-05-01T20:39:39.817Z,103.63
2018-05-01T20:42:13.195Z,94.60
2018-05-01T20:44:45.894Z,100.80
2018-05-01T20:47:19.074Z,112.47
2018-05-01T20:49:52.363Z,120.50
2018-05-01T20:52:25.970Z,120.23
2018-05-01T20:54:58.140Z,124.90
2018-05-01T20:57:30.637Z,125.10
2018-05-01T21:00:02.656Z,121.83
2018-05-01T21:02:35.496Z,117.10
2018-05-01T21:05:07.330Z,113.27
2018-05-01T21:07:40.298Z,112.07
2018-05-01T21:10:12.430Z,99.40
2018-05-01T21:12:44.517Z,91.87
2018-05-01T21:15:16.593Z,88.27
2018-05-01T21:17:51.832Z,85.00
2018-05-01T21:20:24.535Z,77.73
2018-05-01T21:22:58.339Z,71.60
2018-05-01T21:25:31.239Z,65.97
2018-05-01T21:28:04.152Z,59.20
2018-05-01T21:30:36.812Z,54.97
2018-05-01T21:33:11.612Z,51.83
2018-05-01T21:35:45.174Z,50.33
2018-05-01T21:38:20.593Z,45.10
2018-05-01T21:40:53.140Z,42.67
2018-05-01T21:43:26.132Z,40.50
2018-05-01T21:46:01.118Z,39.93
2018-05-01T21:48:33.400Z,38.23
2018-05-01T21:51:06.612Z,39.40
2018-05-01T21:53:38.893Z,44.07
2018-05-01T21:56:11.992Z,48.77
2018-05-01T21:58:44.399Z,52.93
2018-05-01T22:01:16.835Z,56.33
2018-05-01T22:03:50.514Z,62.57
2018-05-01T22:06:23.214Z,65.73
2018-05-01T22:08:56.055Z,71.23
2018-05-01T22:33:34.415Z,83.67
2018-05-01T22:36:06.956Z,86.40
2018-05-01T22:38:39.550Z,90.60
2018-05-01T22:41:12.141Z,89.53
2018-05-01T22:43:44.018Z,92.03
2018-05-01T22:46:16.533Z,87.57
2018-05-01T22:48:48.917Z,80.17
2018-05-01T22:51:22.009Z,81.70
2018-05-01T22:53:57.099Z,76.10
2018-05-01T22:56:29.622Z,72.10
2018-05-01T22:59:02.981Z,64.17
2018-05-01T23:01:35.152Z,55.00
2018-05-01T23:04:07.571Z,57.87
2018-05-01T23:06:42.311Z,47.60
2018-05-01T23:09:14.769Z,46.53
2018-05-01T23:11:47.335Z,39.27
2018-05-01T23:14:20.831Z,38.60
2018-05-01T23:16:52.774Z,33.53
2018-05-01T23:19:25.790Z,33.20
2018-05-01T23:21:58.271Z,30.57
2018-05-01T23:24:30.456Z,29.80
2018-05-01T23:27:03.610Z,26.63
2018-05-01T23:29:36.614Z,26.43
2018-05-01T23:32:10.136Z,24.37
2018-05-01T23:34:44.348Z,25.30
2018-05-01T23:37:16.898Z,23.23
2018-05-01T23:39:49.252Z,22.47
2018-05-01T23:42:21.253Z,22.13
2018-05-01T23:44:53.252Z,21.60
2018-05-01T23:47:25.213Z,25.53
2018-05-01T23:49:57.799Z,23.63
2018-05-01T23:52:29.570Z,26.63
2018-05-01T23:55:03.074Z,24.93
2018-05-01T23:57:35.210Z,25.80
